sensor_id;sensor_type;location;lat;lon;timestamp;pressure;altitude;pressure_sealevel;temperature
77789;BMP280;66980;44.384;0.512;2023-04-03T00:00:11;102182.16;;;21.09
77789;BMP280;66980;44.384;0.512;2023-04-03T00:02:36;102186.19;;;21.08
77789;BMP280;66980;44.384;0.512;2023-04-03T00:05:02;102180.19;;;21.09
77789;BMP280;66980;44.384;0.512;2023-04-03T00:07:27;102174.19;;;21.05
77789;BMP280;66980;44.384;0.512;2023-04-03T00:09:53;102164.94;;;21.03
77789;BMP280;66980;44.384;0.512;2023-04-03T00:12:18;102171.19;;;21.03
77789;BMP280;66980;44.384;0.512;2023-04-03T00:14:43;102168.75;;;21.00
77789;BMP280;66980;44.384;0.512;2023-04-03T00:17:09;102166.50;;;20.98
77789;BMP280;66980;44.384;0.512;2023-04-03T00:19:34;102177.25;;;21.02
77789;BMP280;66980;44.384;0.512;2023-04-03T00:22:00;102175.53;;;20.99
77789;BMP280;66980;44.384;0.512;2023-04-03T00:24:25;102159.06;;;20.93
77789;BMP280;66980;44.384;0.512;2023-04-03T00:26:51;102171.78;;;20.96
77789;BMP280;66980;44.384;0.512;2023-04-03T00:29:16;102167.84;;;20.91
77789;BMP280;66980;44.384;0.512;2023-04-03T00:31:42;102170.59;;;20.91
77789;BMP280;66980;44.384;0.512;2023-04-03T00:34:08;102174.88;;;20.92
77789;BMP280;66980;44.384;0.512;2023-04-03T00:36:33;102160.63;;;20.88
77789;BMP280;66980;44.384;0.512;2023-04-03T00:38:59;102171.13;;;20.90
77789;BMP280;66980;44.384;0.512;2023-04-03T00:41:25;102164.19;;;20.83
77789;BMP280;66980;44.384;0.512;2023-04-03T00:43:50;102168.66;;;20.86
77789;BMP280;66980;44.384;0.512;2023-04-03T00:46:16;102162.69;;;20.82
77789;BMP280;66980;44.384;0.512;2023-04-03T00:48:44;102157.16;;;20.82
77789;BMP280;66980;44.384;0.512;2023-04-03T00:51:15;102152.91;;;20.81
77789;BMP280;66980;44.384;0.512;2023-04-03T00:53:46;102152.19;;;20.81
77789;BMP280;66980;44.384;0.512;2023-04-03T00:56:14;102159.72;;;20.80
77789;BMP280;66980;44.384;0.512;2023-04-03T00:58:48;102133.28;;;20.66
77789;BMP280;66980;44.384;0.512;2023-04-03T01:01:18;102131.78;;;20.65
77789;BMP280;66980;44.384;0.512;2023-04-03T01:03:45;102142.75;;;20.70
77789;BMP280;66980;44.384;0.512;2023-04-03T01:06:12;102145.75;;;20.73
77789;BMP280;66980;44.384;0.512;2023-04-03T01:08:38;102144.03;;;20.69
77789;BMP280;66980;44.384;0.512;2023-04-03T01:11:04;102141.28;;;20.69
77789;BMP280;66980;44.384;0.512;2023-04-03T01:13:32;102137.31;;;20.65
77789;BMP280;66980;44.384;0.512;2023-04-03T01:16:01;102132.09;;;20.61
77789;BMP280;66980;44.384;0.512;2023-04-03T01:18:28;102128.50;;;20.66
77789;BMP280;66980;44.384;0.512;2023-04-03T01:23:47;102133.28;;;20.66
77789;BMP280;66980;44.384;0.512;2023-04-03T01:26:15;102128.78;;;20.63
77789;BMP280;66980;44.384;0.512;2023-04-03T01:28:41;102116.06;;;20.60
77789;BMP280;66980;44.384;0.512;2023-04-03T01:31:24;102119.78;;;20.62
77789;BMP280;66980;44.384;0.512;2023-04-03T01:33:50;102117.34;;;20.59
77789;BMP280;66980;44.384;0.512;2023-04-03T01:36:24;102113.06;;;20.58
77789;BMP280;66980;44.384;0.512;2023-04-03T01:38:51;102120.09;;;20.59
77789;BMP280;66980;44.384;0.512;2023-04-03T01:41:17;102100.63;;;20.51
77789;BMP280;66980;44.384;0.512;2023-04-03T01:43:43;102102.84;;;20.53
77789;BMP280;66980;44.384;0.512;2023-04-03T01:46:09;102105.59;;;20.53
77789;BMP280;66980;44.384;0.512;2023-04-03T01:48:34;102098.34;;;20.50
77789;BMP280;66980;44.384;0.512;2023-04-03T01:51:00;102109.09;;;20.53
77789;BMP280;66980;44.384;0.512;2023-04-03T01:53:25;102097.84;;;20.51
77789;BMP280;66980;44.384;0.512;2023-04-03T01:55:51;102085.47;;;20.39
77789;BMP280;66980;44.384;0.512;2023-04-03T01:58:17;102102.63;;;20.51
77789;BMP280;66980;44.384;0.512;2023-04-03T02:00:42;102093.66;;;20.44
77789;BMP280;66980;44.384;0.512;2023-04-03T02:03:08;102100.38;;;20.49
77789;BMP280;66980;44.384;0.512;2023-04-03T02:05:33;102084.44;;;20.42
77789;BMP280;66980;44.384;0.512;2023-04-03T02:07:59;102083.97;;;20.38
77789;BMP280;66980;44.384;0.512;2023-04-03T02:10:25;102095.16;;;20.45
77789;BMP280;66980;44.384;0.512;2023-04-03T02:12:51;102097.69;;;20.43
77789;BMP280;66980;44.384;0.512;2023-04-03T02:15:17;102092.47;;;20.40
77789;BMP280;66980;44.384;0.512;2023-04-03T02:17:42;102094.47;;;20.39
77789;BMP280;66980;44.384;0.512;2023-04-03T02:20:08;102088.97;;;20.39
77789;BMP280;66980;44.384;0.512;2023-04-03T02:22:34;102087.97;;;20.37
77789;BMP280;66980;44.384;0.512;2023-04-03T02:24:59;102092.75;;;20.36
77789;BMP280;66980;44.384;0.512;2023-04-03T02:27:26;102091.47;;;20.37
77789;BMP280;66980;44.384;0.512;2023-04-03T02:29:51;102092.53;;;20.34
77789;BMP280;66980;44.384;0.512;2023-04-03T02:32:16;102087.22;;;20.36
77789;BMP280;66980;44.384;0.512;2023-04-03T02:34:42;102090.28;;;20.33
77789;BMP280;66980;44.384;0.512;2023-04-03T02:37:07;102077.22;;;20.33
77789;BMP280;66980;44.384;0.512;2023-04-03T02:39:34;102082.97;;;20.35
77789;BMP280;66980;44.384;0.512;2023-04-03T02:41:59;102077.22;;;20.33
77789;BMP280;66980;44.384;0.512;2023-04-03T02:44:25;102073.81;;;20.27
77789;BMP280;66980;44.384;0.512;2023-04-03T02:46:50;102070.75;;;20.31
77789;BMP280;66980;44.384;0.512;2023-04-03T02:49:16;102074.06;;;20.29
77789;BMP280;66980;44.384;0.512;2023-04-03T02:51:42;102070.84;;;20.25
77789;BMP280;66980;44.384;0.512;2023-04-03T02:54:07;102077.84;;;20.26
77789;BMP280;66980;44.384;0.512;2023-04-03T02:56:33;102073.59;;;20.25
77789;BMP280;66980;44.384;0.512;2023-04-03T02:58:59;102066.09;;;20.20
77789;BMP280;66980;44.384;0.512;2023-04-03T03:01:25;102073.03;;;20.27
77789;BMP280;66980;44.384;0.512;2023-04-03T03:03:53;102069.81;;;20.23
77789;BMP280;66980;44.384;0.512;2023-04-03T03:06:19;102072.59;;;20.23
77789;BMP280;66980;44.384;0.512;2023-04-03T03:08:44;102062.41;;;20.17
77789;BMP280;66980;44.384;0.512;2023-04-03T03:11:10;102063.34;;;20.20
77789;BMP280;66980;44.384;0.512;2023-04-03T03:13:36;102062.84;;;20.22
77789;BMP280;66980;44.384;0.512;2023-04-03T03:16:02;102048.97;;;20.08
77789;BMP280;66980;44.384;0.512;2023-04-03T03:18:28;102058.34;;;20.18
77789;BMP280;66980;44.384;0.512;2023-04-03T03:20:56;102062.09;;;20.21
77789;BMP280;66980;44.384;0.512;2023-04-03T03:23:23;102064.41;;;20.17
77789;BMP280;66980;44.384;0.512;2023-04-03T03:25:54;102045.19;;;20.06
77789;BMP280;66980;44.384;0.512;2023-04-03T03:28:20;102054.38;;;20.14
77789;BMP280;66980;44.384;0.512;2023-04-03T03:30:46;102059.19;;;20.13
77789;BMP280;66980;44.384;0.512;2023-04-03T03:33:11;102053.41;;;20.11
77789;BMP280;66980;44.384;0.512;2023-04-03T03:35:37;102057.97;;;20.09
77789;BMP280;66980;44.384;0.512;2023-04-03T03:38:02;102050.72;;;20.06
77789;BMP280;66980;44.384;0.512;2023-04-03T03:40:28;102056.47;;;20.08
77789;BMP280;66980;44.384;0.512;2023-04-03T03:42:53;102049.47;;;20.07
77789;BMP280;66980;44.384;0.512;2023-04-03T03:45:19;102040.50;;;20.01
77789;BMP280;66980;44.384;0.512;2023-04-03T03:47:44;102060.00;;;20.08
77789;BMP280;66980;44.384;0.512;2023-04-03T03:50:10;102052.97;;;20.07
77789;BMP280;66980;44.384;0.512;2023-04-03T03:52:36;102056.47;;;20.08
77789;BMP280;66980;44.384;0.512;2023-04-03T03:55:01;102055.47;;;20.05
77789;BMP280;66980;44.384;0.512;2023-04-03T03:57:27;102048.50;;;20.04
77789;BMP280;66980;44.384;0.512;2023-04-03T03:59:54;102052.50;;;20.03
77789;BMP280;66980;44.384;0.512;2023-04-03T04:02:19;102045.50;;;20.02
77789;BMP280;66980;44.384;0.512;2023-04-03T04:04:45;102040.75;;;20.03
77789;BMP280;66980;44.384;0.512;2023-04-03T04:07:11;102036.78;;;19.98
77789;BMP280;66980;44.384;0.512;2023-04-03T04:09:36;102041.78;;;20.00
77789;BMP280;66980;44.384;0.512;2023-04-03T04:12:02;102048.56;;;19.99
77789;BMP280;66980;44.384;0.512;2023-04-03T04:14:27;102035.28;;;19.97
77789;BMP280;66980;44.384;0.512;2023-04-03T04:16:53;102040.03;;;19.97
77789;BMP280;66980;44.384;0.512;2023-04-03T04:19:18;102030.56;;;19.92
77789;BMP280;66980;44.384;0.512;2023-04-03T04:21:44;102042.34;;;19.92
77789;BMP280;66980;44.384;0.512;2023-04-03T04:24:09;102036.09;;;19.92
77789;BMP280;66980;44.384;0.512;2023-04-03T04:26:35;102035.38;;;19.91
77789;BMP280;66980;44.384;0.512;2023-04-03T04:29:00;102023.56;;;19.91
77789;BMP280;66980;44.384;0.512;2023-04-03T04:31:26;102029.09;;;19.91
77789;BMP280;66980;44.384;0.512;2023-04-03T04:33:52;102016.91;;;19.81
77789;BMP280;66980;44.384;0.512;2023-04-03T04:36:18;102028.09;;;19.88
77789;BMP280;66980;44.384;0.512;2023-04-03T04:38:43;102026.09;;;19.89
77789;BMP280;66980;44.384;0.512;2023-04-03T04:41:09;102024.38;;;19.86
77789;BMP280;66980;44.384;0.512;2023-04-03T04:43:35;102016.63;;;19.84
77789;BMP280;66980;44.384;0.512;2023-04-03T04:46:06;102021.13;;;19.87
77789;BMP280;66980;44.384;0.512;2023-04-03T04:48:32;102013.13;;;19.84
77789;BMP280;66980;44.384;0.512;2023-04-03T04:50:57;102008.34;;;19.84
77789;BMP280;66980;44.384;0.512;2023-04-03T04:53:23;102005.88;;;19.81
77789;BMP280;66980;44.384;0.512;2023-04-03T04:55:48;102017.66;;;19.81
77789;BMP280;66980;44.384;0.512;2023-04-03T04:58:14;102019.16;;;19.82
77789;BMP280;66980;44.384;0.512;2023-04-03T05:00:40;102018.16;;;19.80
77789;BMP280;66980;44.384;0.512;2023-04-03T05:03:05;102010.44;;;19.78
77789;BMP280;66980;44.384;0.512;2023-04-03T05:05:31;102013.72;;;19.77
77789;BMP280;66980;44.384;0.512;2023-04-03T05:07:56;102014.66;;;19.79
77789;BMP280;66980;44.384;0.512;2023-04-03T05:10:22;102007.97;;;19.75
77789;BMP280;66980;44.384;0.512;2023-04-03T05:12:47;101997.47;;;19.73
77789;BMP280;66980;44.384;0.512;2023-04-03T05:15:13;102010.97;;;19.77
77789;BMP280;66980;44.384;0.512;2023-04-03T05:17:38;102021.44;;;19.78
77789;BMP280;66980;44.384;0.512;2023-04-03T05:20:04;102013.25;;;19.73
77789;BMP280;66980;44.384;0.512;2023-04-03T05:22:30;102022.25;;;19.73
77789;BMP280;66980;44.384;0.512;2023-04-03T05:24:56;102021.28;;;19.70
77789;BMP280;66980;44.384;0.512;2023-04-03T05:27:22;102026.25;;;19.72
77789;BMP280;66980;44.384;0.512;2023-04-03T05:29:49;102025.22;;;19.75
77789;BMP280;66980;44.384;0.512;2023-04-03T05:32:15;102025.97;;;19.76
77789;BMP280;66980;44.384;0.512;2023-04-03T05:34:40;102023.03;;;19.68
77789;BMP280;66980;44.384;0.512;2023-04-03T05:37:06;102023.81;;;19.68
77789;BMP280;66980;44.384;0.512;2023-04-03T05:39:32;102031.09;;;19.90
77789;BMP280;66980;44.384;0.512;2023-04-03T05:41:59;102041.19;;;19.82
77789;BMP280;66980;44.384;0.512;2023-04-03T05:44:24;102035.75;;;19.77
77789;BMP280;66980;44.384;0.512;2023-04-03T05:46:50;102031.47;;;19.76
77789;BMP280;66980;44.384;0.512;2023-04-03T05:49:15;102031.53;;;19.70
77789;BMP280;66980;44.384;0.512;2023-04-03T05:51:41;102034.25;;;19.76
77789;BMP280;66980;44.384;0.512;2023-04-03T05:54:15;102025.84;;;19.62
77789;BMP280;66980;44.384;0.512;2023-04-03T05:56:43;102029.06;;;19.66
77789;BMP280;66980;44.384;0.512;2023-04-03T05:59:09;102038.53;;;19.71
77789;BMP280;66980;44.384;0.512;2023-04-03T06:01:34;102032.28;;;19.70
77789;BMP280;66980;44.384;0.512;2023-04-03T06:04:00;102027.06;;;19.67
77789;BMP280;66980;44.384;0.512;2023-04-03T06:06:26;102034.84;;;19.68
77789;BMP280;66980;44.384;0.512;2023-04-03T06:08:51;102031.78;;;19.72
77789;BMP280;66980;44.384;0.512;2023-04-03T06:11:17;102036.88;;;19.62
77789;BMP280;66980;44.384;0.512;2023-04-03T06:13:42;102040.66;;;19.59
77789;BMP280;66980;44.384;0.512;2023-04-03T06:16:12;102039.41;;;19.60
77789;BMP280;66980;44.384;0.512;2023-04-03T06:18:40;102032.91;;;19.58
77789;BMP280;66980;44.384;0.512;2023-04-03T06:21:06;102042.41;;;19.57
77789;BMP280;66980;44.384;0.512;2023-04-03T06:23:33;102042.66;;;19.59
77789;BMP280;66980;44.384;0.512;2023-04-03T06:25:58;102046.69;;;19.58
77789;BMP280;66980;44.384;0.512;2023-04-03T06:28:25;102044.94;;;19.55
77789;BMP280;66980;44.384;0.512;2023-04-03T06:30:50;102039.94;;;19.53
77789;BMP280;66980;44.384;0.512;2023-04-03T06:33:15;102044.47;;;19.56
77789;BMP280;66980;44.384;0.512;2023-04-03T06:35:41;102047.69;;;19.60
77789;BMP280;66980;44.384;0.512;2023-04-03T06:38:07;102049.34;;;19.69
77789;BMP280;66980;44.384;0.512;2023-04-03T06:40:35;102050.81;;;19.70
77789;BMP280;66980;44.384;0.512;2023-04-03T06:43:01;102046.81;;;19.71
77789;BMP280;66980;44.384;0.512;2023-04-03T06:45:26;102052.34;;;19.65
77789;BMP280;66980;44.384;0.512;2023-04-03T06:47:53;102047.28;;;19.75
77789;BMP280;66980;44.384;0.512;2023-04-03T06:50:18;102038.53;;;19.71
77789;BMP280;66980;44.384;0.512;2023-04-03T06:52:44;102061.44;;;19.85
77789;BMP280;66980;44.384;0.512;2023-04-03T06:55:10;102051.66;;;19.89
77789;BMP280;66980;44.384;0.512;2023-04-03T06:57:35;102046.44;;;19.86
77789;BMP280;66980;44.384;0.512;2023-04-03T07:00:01;102058.53;;;20.02
77789;BMP280;66980;44.384;0.512;2023-04-03T07:02:28;102061.00;;;20.05
77789;BMP280;66980;44.384;0.512;2023-04-03T07:04:53;102053.47;;;20.06
77789;BMP280;66980;44.384;0.512;2023-04-03T07:07:20;102056.19;;;20.11
77789;BMP280;66980;44.384;0.512;2023-04-03T07:09:45;102053.22;;;20.09
77789;BMP280;66980;44.384;0.512;2023-04-03T07:12:13;102059.84;;;20.19
77789;BMP280;66980;44.384;0.512;2023-04-03T07:14:38;102057.03;;;20.25
77789;BMP280;66980;44.384;0.512;2023-04-03T07:17:04;102054.03;;;20.23
77789;BMP280;66980;44.384;0.512;2023-04-03T07:19:30;102057.69;;;20.31
77789;BMP280;66980;44.384;0.512;2023-04-03T07:21:56;102053.19;;;20.34
77789;BMP280;66980;44.384;0.512;2023-04-03T07:24:22;102058.69;;;20.34
77789;BMP280;66980;44.384;0.512;2023-04-03T07:26:51;102054.13;;;20.36
77789;BMP280;66980;44.384;0.512;2023-04-03T07:29:17;102048.34;;;20.40
77789;BMP280;66980;44.384;0.512;2023-04-03T07:31:42;102048.88;;;20.38
77789;BMP280;66980;44.384;0.512;2023-04-03T07:34:10;102049.31;;;20.42
77789;BMP280;66980;44.384;0.512;2023-04-03T07:36:36;102047.81;;;20.41
77789;BMP280;66980;44.384;0.512;2023-04-03T07:39:01;102044.84;;;20.39
77789;BMP280;66980;44.384;0.512;2023-04-03T07:41:27;102051.47;;;20.50
77789;BMP280;66980;44.384;0.512;2023-04-03T07:43:54;102041.03;;;20.42
77789;BMP280;66980;44.384;0.512;2023-04-03T07:46:20;102043.56;;;20.40
77789;BMP280;66980;44.384;0.512;2023-04-03T07:48:45;102045.50;;;20.45
77789;BMP280;66980;44.384;0.512;2023-04-03T07:51:11;102045.00;;;20.47
77789;BMP280;66980;44.384;0.512;2023-04-03T07:53:38;102051.16;;;20.53
77789;BMP280;66980;44.384;0.512;2023-04-03T07:56:03;102041.94;;;20.51
77789;BMP280;66980;44.384;0.512;2023-04-03T07:58:29;102057.81;;;20.82
77789;BMP280;66980;44.384;0.512;2023-04-03T08:00:55;102056.97;;;20.87
77789;BMP280;66980;44.384;0.512;2023-04-03T08:03:21;102054.75;;;20.86
77789;BMP280;66980;44.384;0.512;2023-04-03T08:05:48;102046.78;;;20.82
77789;BMP280;66980;44.384;0.512;2023-04-03T08:08:17;102054.50;;;20.84
77789;BMP280;66980;44.384;0.512;2023-04-03T08:10:43;102047.94;;;20.74
77789;BMP280;66980;44.384;0.512;2023-04-03T08:13:09;102056.09;;;20.79
77789;BMP280;66980;44.384;0.512;2023-04-03T08:15:35;102056.31;;;20.81
77789;BMP280;66980;44.384;0.512;2023-04-03T08:18:03;102051.47;;;20.87
77789;BMP280;66980;44.384;0.512;2023-04-03T08:20:29;102049.88;;;20.92
77789;BMP280;66980;44.384;0.512;2023-04-03T08:22:54;102062.44;;;20.93
77789;BMP280;66980;44.384;0.512;2023-04-03T08:25:20;102057.88;;;20.95
77789;BMP280;66980;44.384;0.512;2023-04-03T08:27:45;102061.31;;;21.02
77789;BMP280;66980;44.384;0.512;2023-04-03T08:30:12;102061.50;;;21.04
77789;BMP280;66980;44.384;0.512;2023-04-03T08:32:38;102061.06;;;21.00
77789;BMP280;66980;44.384;0.512;2023-04-03T08:35:04;102059.59;;;20.99
77789;BMP280;66980;44.384;0.512;2023-04-03T08:37:29;102057.25;;;21.03
77789;BMP280;66980;44.384;0.512;2023-04-03T08:39:55;102061.50;;;21.04
77789;BMP280;66980;44.384;0.512;2023-04-03T08:45:27;102049.53;;;21.01
77789;BMP280;66980;44.384;0.512;2023-04-03T08:48:04;102038.25;;;20.99
77789;BMP280;66980;44.384;0.512;2023-04-03T08:50:47;102044.13;;;21.09
77789;BMP280;66980;44.384;0.512;2023-04-03T08:53:17;102041.59;;;21.11
77789;BMP280;66980;44.384;0.512;2023-04-03T08:55:47;102040.22;;;21.17
77789;BMP280;66980;44.384;0.512;2023-04-03T08:58:22;102025.16;;;21.18
77789;BMP280;66980;44.384;0.512;2023-04-03T09:01:22;102025.16;;;21.18
77789;BMP280;66980;44.384;0.512;2023-04-03T09:03:48;102034.25;;;21.13
77789;BMP280;66980;44.384;0.512;2023-04-03T09:06:20;102022.91;;;21.17
77789;BMP280;66980;44.384;0.512;2023-04-03T09:11:55;102023.19;;;21.13
77789;BMP280;66980;44.384;0.512;2023-04-03T09:14:36;102031.47;;;21.13
77789;BMP280;66980;44.384;0.512;2023-04-03T09:22:41;101998.31;;;21.00
77789;BMP280;66980;44.384;0.512;2023-04-03T09:25:25;102009.00;;;21.09
77789;BMP280;66980;44.384;0.512;2023-04-03T09:27:52;102006.84;;;21.15
77789;BMP280;66980;44.384;0.512;2023-04-03T09:30:24;102002.09;;;21.16
77789;BMP280;66980;44.384;0.512;2023-04-03T09:32:52;102004.66;;;21.14
77789;BMP280;66980;44.384;0.512;2023-04-03T09:35:30;101999.88;;;21.14
77789;BMP280;66980;44.384;0.512;2023-04-03T09:38:01;102003.13;;;21.13
77789;BMP280;66980;44.384;0.512;2023-04-03T09:40:28;102006.41;;;21.11
77789;BMP280;66980;44.384;0.512;2023-04-03T09:42:59;102002.69;;;21.09
77789;BMP280;66980;44.384;0.512;2023-04-03T09:45:31;101993.47;;;21.06
77789;BMP280;66980;44.384;0.512;2023-04-03T09:56:19;101994.75;;;21.05
77789;BMP280;66980;44.384;0.512;2023-04-03T10:01:33;101986.97;;;21.04
77789;BMP280;66980;44.384;0.512;2023-04-03T10:04:06;101986.06;;;21.14
77789;BMP280;66980;44.384;0.512;2023-04-03T10:06:35;101990.13;;;21.27
77789;BMP280;66980;44.384;0.512;2023-04-03T10:09:05;101990.56;;;21.31
77789;BMP280;66980;44.384;0.512;2023-04-03T10:11:31;101974.41;;;21.35
77789;BMP280;66980;44.384;0.512;2023-04-03T10:14:02;101972.81;;;21.39
77789;BMP280;66980;44.384;0.512;2023-04-03T10:16:40;101978.44;;;21.34
77789;BMP280;66980;44.384;0.512;2023-04-03T10:29:38;101963.31;;;21.22
77789;BMP280;66980;44.384;0.512;2023-04-03T10:32:15;101958.88;;;21.18
77789;BMP280;66980;44.384;0.512;2023-04-03T10:34:45;101955.44;;;21.12
77789;BMP280;66980;44.384;0.512;2023-04-03T10:40:02;101957.13;;;21.15
77789;BMP280;66980;44.384;0.512;2023-04-03T10:47:58;101941.22;;;21.08
77789;BMP280;66980;44.384;0.512;2023-04-03T10:53:29;101940.13;;;21.11
77789;BMP280;66980;44.384;0.512;2023-04-03T10:59:39;101935.38;;;21.12
77789;BMP280;66980;44.384;0.512;2023-04-03T11:04:37;101890.63;;;20.87
77789;BMP280;66980;44.384;0.512;2023-04-03T11:07:21;101906.16;;;21.03
77789;BMP280;66980;44.384;0.512;2023-04-03T11:09:52;101913.41;;;21.06
77789;BMP280;66980;44.384;0.512;2023-04-03T11:12:38;101920.72;;;21.04
77789;BMP280;66980;44.384;0.512;2023-04-03T11:15:12;101912.00;;;21.00
77789;BMP280;66980;44.384;0.512;2023-04-03T11:18:06;101912.53;;;20.98
77789;BMP280;66980;44.384;0.512;2023-04-03T11:20:31;101905.00;;;20.99
77789;BMP280;66980;44.384;0.512;2023-04-03T11:23:29;101909.78;;;20.98
77789;BMP280;66980;44.384;0.512;2023-04-03T11:26:11;101897.25;;;20.97
77789;BMP280;66980;44.384;0.512;2023-04-03T11:28:37;101900.75;;;20.98
77789;BMP280;66980;44.384;0.512;2023-04-03T11:31:15;101898.00;;;20.98
77789;BMP280;66980;44.384;0.512;2023-04-03T11:34:05;101887.25;;;20.94
77789;BMP280;66980;44.384;0.512;2023-04-03T11:39:24;101887.81;;;20.92
77789;BMP280;66980;44.384;0.512;2023-04-03T11:41:51;101886.28;;;20.91
77789;BMP280;66980;44.384;0.512;2023-04-03T11:44:37;101880.78;;;20.91
77789;BMP280;66980;44.384;0.512;2023-04-03T11:47:05;101878.00;;;20.91
77789;BMP280;66980;44.384;0.512;2023-04-03T12:16:06;101844.75;;;20.84
77789;BMP280;66980;44.384;0.512;2023-04-03T12:21:23;101830.16;;;20.89
77789;BMP280;66980;44.384;0.512;2023-04-03T12:24:23;101825.25;;;20.82
77789;BMP280;66980;44.384;0.512;2023-04-03T12:29:53;101829.28;;;20.81
77789;BMP280;66980;44.384;0.512;2023-04-03T12:33:04;101818.56;;;20.77
77789;BMP280;66980;44.384;0.512;2023-04-03T12:35:31;101824.84;;;20.78
77789;BMP280;66980;44.384;0.512;2023-04-03T12:38:14;101813.38;;;20.74
77789;BMP280;66980;44.384;0.512;2023-04-03T12:48:38;101804.63;;;20.69
77789;BMP280;66980;44.384;0.512;2023-04-03T12:51:05;101808.88;;;20.70
77789;BMP280;66980;44.384;0.512;2023-04-03T12:53:35;101799.34;;;20.72
77789;BMP280;66980;44.384;0.512;2023-04-03T12:58:46;101789.13;;;20.66
77789;BMP280;66980;44.384;0.512;2023-04-03T13:01:15;101785.13;;;20.67
77789;BMP280;66980;44.384;0.512;2023-04-03T13:03:45;101789.13;;;20.66
77789;BMP280;66980;44.384;0.512;2023-04-03T13:06:13;101779.59;;;20.67
77789;BMP280;66980;44.384;0.512;2023-04-03T13:08:48;101772.38;;;20.64
77789;BMP280;66980;44.384;0.512;2023-04-03T13:11:14;101779.38;;;20.65
77789;BMP280;66980;44.384;0.512;2023-04-03T13:13:54;101777.03;;;20.69
77789;BMP280;66980;44.384;0.512;2023-04-03T13:16:20;101775.34;;;20.66
77789;BMP280;66980;44.384;0.512;2023-04-03T13:18:51;101778.84;;;20.67
77789;BMP280;66980;44.384;0.512;2023-04-03T13:21:20;101774.59;;;20.66
77789;BMP280;66980;44.384;0.512;2023-04-03T13:23:51;101771.84;;;20.66
77789;BMP280;66980;44.384;0.512;2023-04-03T13:26:18;101765.56;;;20.65
77789;BMP280;66980;44.384;0.512;2023-04-03T13:28:46;101757.31;;;20.65
77789;BMP280;66980;44.384;0.512;2023-04-03T13:33:50;101754.53;;;20.65
77789;BMP280;66980;44.384;0.512;2023-04-03T13:36:29;101755.50;;;20.68
77789;BMP280;66980;44.384;0.512;2023-04-03T13:39:06;101747.53;;;20.64
77789;BMP280;66980;44.384;0.512;2023-04-03T13:41:38;101751.03;;;20.65
77789;BMP280;66980;44.384;0.512;2023-04-03T13:46:49;101738.53;;;20.64
77789;BMP280;66980;44.384;0.512;2023-04-03T13:51:52;101728.00;;;20.62
77789;BMP280;66980;44.384;0.512;2023-04-03T13:54:30;101735.97;;;20.66
77789;BMP280;66980;44.384;0.512;2023-04-03T13:56:58;101728.00;;;20.62
77789;BMP280;66980;44.384;0.512;2023-04-03T13:59:30;101729.28;;;20.61
77789;BMP280;66980;44.384;0.512;2023-04-03T14:06:54;101728.97;;;20.65
77789;BMP280;66980;44.384;0.512;2023-04-03T14:09:21;101714.63;;;20.66
77789;BMP280;66980;44.384;0.512;2023-04-03T14:11:49;101712.00;;;20.61
77789;BMP280;66980;44.384;0.512;2023-04-03T14:14:18;101711.03;;;20.58
77789;BMP280;66980;44.384;0.512;2023-04-03T14:16:52;101704.78;;;20.58
77789;BMP280;66980;44.384;0.512;2023-04-03T14:19:19;101704.78;;;20.58
77789;BMP280;66980;44.384;0.512;2023-04-03T14:21:45;101700.97;;;20.61
77789;BMP280;66980;44.384;0.512;2023-04-03T14:24:11;101697.78;;;20.57
77789;BMP280;66980;44.384;0.512;2023-04-03T14:26:36;101689.50;;;20.57
77789;BMP280;66980;44.384;0.512;2023-04-03T14:29:02;101697.78;;;20.57
77789;BMP280;66980;44.384;0.512;2023-04-03T14:31:27;101676.56;;;20.52
77789;BMP280;66980;44.384;0.512;2023-04-03T14:33:53;101684.22;;;20.59
77789;BMP280;66980;44.384;0.512;2023-04-03T14:36:23;101691.84;;;20.66
77789;BMP280;66980;44.384;0.512;2023-04-03T14:38:53;101668.72;;;20.56
77789;BMP280;66980;44.384;0.512;2023-04-03T14:41:23;101680.38;;;20.62
77789;BMP280;66980;44.384;0.512;2023-04-03T14:43:50;101675.16;;;20.58
77789;BMP280;66980;44.384;0.512;2023-04-03T14:46:37;101660.31;;;20.61
77789;BMP280;66980;44.384;0.512;2023-04-03T14:49:08;101660.88;;;20.60
77789;BMP280;66980;44.384;0.512;2023-04-03T14:51:37;101653.22;;;20.66
77789;BMP280;66980;44.384;0.512;2023-04-03T14:54:03;101647.06;;;20.73
77789;BMP280;66980;44.384;0.512;2023-04-03T14:56:30;101646.75;;;20.63
77789;BMP280;66980;44.384;0.512;2023-04-03T14:58:59;101649.09;;;20.59
77789;BMP280;66980;44.384;0.512;2023-04-03T15:01:27;101643.78;;;20.61
77789;BMP280;66980;44.384;0.512;2023-04-03T15:03:53;101647.81;;;20.60
77789;BMP280;66980;44.384;0.512;2023-04-03T15:06:19;101646.75;;;20.50
77789;BMP280;66980;44.384;0.512;2023-04-03T15:08:46;101642.31;;;20.47
77789;BMP280;66980;44.384;0.512;2023-04-03T15:11:12;101630.72;;;20.49
77789;BMP280;66980;44.384;0.512;2023-04-03T15:13:38;101638.38;;;20.56
77789;BMP280;66980;44.384;0.512;2023-04-03T15:16:05;101623.31;;;20.57
77789;BMP280;66980;44.384;0.512;2023-04-03T15:18:35;101625.75;;;20.60
77789;BMP280;66980;44.384;0.512;2023-04-03T15:21:03;101618.94;;;20.61
77789;BMP280;66980;44.384;0.512;2023-04-03T15:23:28;101604.31;;;20.53
77789;BMP280;66980;44.384;0.512;2023-04-03T15:25:55;101616.41;;;20.50
77789;BMP280;66980;44.384;0.512;2023-04-03T15:28:33;101606.75;;;20.43
77789;BMP280;66980;44.384;0.512;2023-04-03T15:31:01;101590.75;;;20.29
77789;BMP280;66980;44.384;0.512;2023-04-03T15:33:27;101608.13;;;20.37
77789;BMP280;66980;44.384;0.512;2023-04-03T15:35:53;101611.31;;;20.41
77789;BMP280;66980;44.384;0.512;2023-04-03T15:38:19;101593.09;;;20.38
77789;BMP280;66980;44.384;0.512;2023-04-03T15:40:45;101607.50;;;20.44
77789;BMP280;66980;44.384;0.512;2023-04-03T15:43:12;101601.34;;;20.51
77789;BMP280;66980;44.384;0.512;2023-04-03T15:45:37;101601.34;;;20.51
77789;BMP280;66980;44.384;0.512;2023-04-03T15:48:04;101598.38;;;20.49
77789;BMP280;66980;44.384;0.512;2023-04-03T15:50:32;101587.75;;;20.53
77789;BMP280;66980;44.384;0.512;2023-04-03T15:52:58;101595.28;;;20.53